M I D A S
Marine Information and Data Acquisition System
Tripno 1941 of the Zeeleeuw from 2010-08-19 08:00:00 to 2010-08-19 17:00:00
Back to CruiseResearch ActivitiesStationsMapUnderway DataData graphs

EquipmentUnitsComment
TimeDGPSUTC
LatitudeDGPSDM.mWGS84
LongitudeDGPSDM.mWGS84
HeadingGyrodeg 
SOGDGPSknotsSpeed over ground
COGDGPSdegCourse over ground
DepthEcho soundermeters200 kHz
Missing or incorrect values are displayed as -999
Navigation data collected by the RV Zeeleeuw from 2010-08-19 08:00:00 to 2010-08-19 17:00:00
                                                                                    Next 1000 lines
Time Latitude Longitude Heading SOG COG Depth
2010-08-19 08:00:20 51°23.99 2°50.226 92 14.4 90 -999
2010-08-19 08:00:30 51°23.992 2°50.282 92 14.4 90 -999
2010-08-19 08:00:40 51°23.993 2°50.349 92 14.4 90 -999
2010-08-19 08:00:50 51°23.994 2°50.405 92 14.4 90 -999
2010-08-19 08:01:00 51°23.997 2°50.468 90.9 14 90 -999
2010-08-19 08:01:10 51°24 2°50.529 90.9 14 90 -999
2010-08-19 08:01:20 51°24.002 2°50.599 90.9 14 90 -999
2010-08-19 08:01:30 51°24.004 2°50.654 90.9 14 90 -999
2010-08-19 08:01:40 51°24.006 2°50.722 90.9 14 90 -999
2010-08-19 08:01:50 51°24.007 2°50.778 90.9 14 90 -999
2010-08-19 08:02:00 51°24.01 2°50.846 89.9 13.9 91 -999
2010-08-19 08:02:10 51°24.013 2°50.901 89.9 13.9 91 -999
2010-08-19 08:02:20 51°24.015 2°50.968 89.9 13.9 91 -999
2010-08-19 08:02:30 51°24.018 2°51.023 89.9 13.9 91 -999
2010-08-19 08:02:40 51°24.02 2°51.091 89.9 13.9 91 -999
2010-08-19 08:02:50 51°24.021 2°51.147 89.9 13.9 91 -999
2010-08-19 08:03:00 51°24.022 2°51.215 92.2 14.09 87 -999
2010-08-19 08:03:10 51°24.022 2°51.27 92.2 14.09 87 -999
2010-08-19 08:03:20 51°24.021 2°51.337 92.2 14.09 87 -999
2010-08-19 08:03:30 51°24.022 2°51.393 92.2 14.09 87 -999
2010-08-19 08:03:40 51°24.023 2°51.46 92.2 14.09 87 -999
2010-08-19 08:03:50 51°24.024 2°51.515 92.2 14.09 87 -999
2010-08-19 08:04:00 51°24.026 2°51.582 90.7 13.9 83 -999
2010-08-19 08:04:10 51°24.025 2°51.636 90.7 13.9 83 -999
2010-08-19 08:04:20 51°24.027 2°51.704 90.7 13.9 83 -999
2010-08-19 08:04:30 51°24.029 2°51.759 90.7 13.9 83 -999
2010-08-19 08:04:40 51°24.03 2°51.827 90.7 13.9 83 -999
2010-08-19 08:04:50 51°24.033 2°51.881 90.7 13.9 83 -999
2010-08-19 08:05:00 51°24.034 2°51.949 92.2 14 87 -999
2010-08-19 08:05:10 51°24.035 2°52.004 92.2 14 87 -999
2010-08-19 08:05:20 51°24.036 2°52.065 92.2 14 87 -999
2010-08-19 08:05:30 51°24.037 2°52.126 92.2 14 87 -999
2010-08-19 08:05:40 51°24.038 2°52.187 92.2 14 87 -999
2010-08-19 08:05:50 51°24.039 2°52.249 92.2 14 87 -999
2010-08-19 08:06:00 51°24.04 2°52.311 92.4 14 89 -999
2010-08-19 08:06:10 51°24.041 2°52.374 92.4 14 89 -999
2010-08-19 08:06:20 51°24.044 2°52.443 92.4 14 89 -999
2010-08-19 08:06:30 51°24.046 2°52.499 92.4 14 89 -999
2010-08-19 08:06:40 51°24.045 2°52.561 92.4 14 89 -999
2010-08-19 08:06:50 51°24.048 2°52.623 92.4 14 89 -999
2010-08-19 08:07:00 51°24.049 2°52.692 91.4 14.3 88 -999
2010-08-19 08:07:10 51°24.051 2°52.748 91.4 14.3 88 -999
2010-08-19 08:07:20 51°24.051 2°52.816 91.4 14.3 88 -999
2010-08-19 08:07:30 51°24.051 2°52.872 91.4 14.3 88 -999
2010-08-19 08:07:40 51°24.053 2°52.94 91.4 14.3 88 -999
2010-08-19 08:07:50 51°24.055 2°52.996 91.4 14.3 88 -999
2010-08-19 08:08:00 51°24.055 2°53.058 93.5 14.19 84 -999
2010-08-19 08:08:10 51°24.056 2°53.12 93.5 14.19 84 -999
2010-08-19 08:08:20 51°24.057 2°53.188 93.5 14.19 84 -999
2010-08-19 08:08:30 51°24.058 2°53.244 93.5 14.19 84 -999
2010-08-19 08:08:40 51°24.058 2°53.313 93.5 14.19 84 -999
2010-08-19 08:08:50 51°24.062 2°53.368 93.5 14.19 84 -999
2010-08-19 08:09:00 51°24.062 2°53.436 92.7 13.69 85 -999
2010-08-19 08:09:10 51°24.063 2°53.492 92.7 13.69 85 -999
2010-08-19 08:09:20 51°24.064 2°53.56 92.7 13.69 85 -999
2010-08-19 08:09:30 51°24.067 2°53.616 92.7 13.69 85 -999
2010-08-19 08:09:40 51°24.069 2°53.678 92.7 13.69 85 -999
2010-08-19 08:09:50 51°24.071 2°53.739 92.7 13.69 85 -999
2010-08-19 08:10:00 51°24.072 2°53.802 91.4 14.19 84 -999
2010-08-19 08:10:10 51°24.073 2°53.863 91.4 14.19 84 -999
2010-08-19 08:10:20 51°24.074 2°53.933 91.4 14.19 84 -999
2010-08-19 08:10:30 51°24.075 2°53.989 91.4 14.19 84 -999
2010-08-19 08:10:40 51°24.077 2°54.058 91.4 14.19 84 -999
2010-08-19 08:10:50 51°24.078 2°54.114 91.4 14.19 84 -999
2010-08-19 08:11:00 51°24.08 2°54.182 91.7 13.8 84 -999
2010-08-19 08:11:10 51°24.081 2°54.238 91.7 13.8 84 -999
2010-08-19 08:11:20 51°24.082 2°54.299 91.7 13.8 84 -999
2010-08-19 08:11:30 51°24.083 2°54.363 91.7 13.8 84 -999
2010-08-19 08:11:40 51°24.085 2°54.431 91.7 13.8 84 -999
2010-08-19 08:11:50 51°24.086 2°54.486 91.7 13.8 84 -999
2010-08-19 08:12:00 51°24.088 2°54.548 90.2 13.9 89 -999
2010-08-19 08:12:10 51°24.09 2°54.611 90.2 13.9 89 -999
2010-08-19 08:12:20 51°24.091 2°54.673 90.2 13.9 89 -999
2010-08-19 08:12:30 51°24.093 2°54.735 90.2 13.9 89 -999
2010-08-19 08:12:40 51°24.094 2°54.805 90.2 13.9 89 -999
2010-08-19 08:12:50 51°24.096 2°54.86 90.2 13.9 89 -999
2010-08-19 08:13:00 51°24.098 2°54.929 91.7 14.3 82 -999
2010-08-19 08:13:10 51°24.098 2°54.985 91.7 14.3 82 -999
2010-08-19 08:13:20 51°24.099 2°55.053 91.7 14.3 82 -999
2010-08-19 08:13:30 51°24.101 2°55.109 91.7 14.3 82 -999
2010-08-19 08:13:40 51°24.102 2°55.177 91.7 14.3 82 -999
2010-08-19 08:13:50 51°24.103 2°55.233 91.7 14.3 82 -999
2010-08-19 08:14:00 51°24.105 2°55.302 92.5 14 88 -999
2010-08-19 08:14:10 51°24.108 2°55.358 92.5 14 88 -999
2010-08-19 08:14:20 51°24.108 2°55.42 92.5 14 88 -999
2010-08-19 08:14:30 51°24.11 2°55.482 92.5 14 88 -999
2010-08-19 08:14:40 51°24.113 2°55.551 92.5 14 88 -999
2010-08-19 08:14:50 51°24.116 2°55.605 92.5 14 88 -999
2010-08-19 08:15:00 51°24.118 2°55.674 90.7 13.9 90 -999
2010-08-19 08:15:10 51°24.12 2°55.728 90.7 13.9 90 -999
2010-08-19 08:15:20 51°24.122 2°55.796 90.7 13.9 90 -999
2010-08-19 08:15:30 51°24.123 2°55.852 90.7 13.9 90 -999
2010-08-19 08:15:40 51°24.122 2°55.919 90.7 13.9 90 -999
2010-08-19 08:15:50 51°24.124 2°55.974 90.7 13.9 90 -999
2010-08-19 08:16:00 51°24.125 2°56.041 92.7 13.9 84 -999
2010-08-19 08:16:10 51°24.126 2°56.095 92.7 13.9 84 -999
2010-08-19 08:16:20 51°24.127 2°56.163 92.7 13.9 84 -999
2010-08-19 08:16:30 51°24.127 2°56.217 92.7 13.9 84 -999
2010-08-19 08:16:40 51°24.128 2°56.285 92.7 13.9 84 -999
2010-08-19 08:16:50 51°24.128 2°56.339 92.7 13.9 84 -999
2010-08-19 08:17:00 51°24.128 2°56.407 94.4 13.8 88 -999
2010-08-19 08:17:10 51°24.127 2°56.462 94.4 13.8 88 -999
2010-08-19 08:17:20 51°24.128 2°56.524 94.4 13.8 88 -999
2010-08-19 08:17:30 51°24.128 2°56.586 94.4 13.8 88 -999
2010-08-19 08:17:40 51°24.129 2°56.654 94.4 13.8 88 -999
2010-08-19 08:17:50 51°24.13 2°56.709 94.4 13.8 88 -999
2010-08-19 08:18:00 51°24.129 2°56.77 94.5 13.69 89 -999
2010-08-19 08:18:10 51°24.13 2°56.831 94.5 13.69 89 -999
2010-08-19 08:18:20 51°24.13 2°56.892 94.5 13.69 89 -999
2010-08-19 08:18:30 51°24.132 2°56.954 94.5 13.69 89 -999
2010-08-19 08:18:40 51°24.133 2°57.022 94.5 13.69 89 -999
2010-08-19 08:18:50 51°24.134 2°57.077 94.5 13.69 89 -999
2010-08-19 08:19:00 51°24.133 2°57.139 94.2 13.9 92 -999
2010-08-19 08:19:10 51°24.134 2°57.2 94.2 13.9 92 -999
2010-08-19 08:19:20 51°24.134 2°57.261 94.2 13.9 92 -999
2010-08-19 08:19:30 51°24.132 2°57.323 94.2 13.9 92 -999
2010-08-19 08:19:40 51°24.132 2°57.39 94.2 13.9 92 -999
2010-08-19 08:19:50 51°24.131 2°57.444 94.2 13.9 92 -999
2010-08-19 08:20:00 51°24.13 2°57.504 95 13.4 91 -999
2010-08-19 08:20:10 51°24.128 2°57.563 95 13.4 91 -999
2010-08-19 08:20:20 51°24.127 2°57.63 95 13.4 91 -999
2010-08-19 08:20:30 51°24.126 2°57.683 95 13.4 91 -999
2010-08-19 08:20:40 51°24.12 2°57.747 95 13.4 91 -999
2010-08-19 08:20:50 51°24.112 2°57.798 95 13.4 91 -999
2010-08-19 08:21:00 51°24.101 2°57.854 111.2 13.3 104 -999
2010-08-19 08:21:10 51°24.089 2°57.909 111.2 13.3 104 -999
2010-08-19 08:21:20 51°24.074 2°57.97 111.2 13.3 104 -999
2010-08-19 08:21:30 51°24.06 2°58.018 111.2 13.3 104 -999
2010-08-19 08:21:40 51°24.045 2°58.079 111.2 13.3 104 -999
2010-08-19 08:21:50 51°24.032 2°58.127 111.2 13.3 104 -999
2010-08-19 08:22:00 51°24.016 2°58.186 120.2 13.59 111 -999
2010-08-19 08:22:10 51°24.005 2°58.235 120.2 13.59 111 -999
2010-08-19 08:22:20 51°23.995 2°58.298 120.2 13.59 111 -999
2010-08-19 08:22:30 51°23.987 2°58.35 120.2 13.59 111 -999
2010-08-19 08:22:40 51°23.98 2°58.414 120.2 13.59 111 -999
2010-08-19 08:22:50 51°23.975 2°58.468 120.2 13.59 111 -999
2010-08-19 08:23:00 51°23.969 2°58.527 104.7 13.8 98 -999
2010-08-19 08:23:10 51°23.962 2°58.586 104.7 13.8 98 -999
2010-08-19 08:23:20 51°23.954 2°58.652 104.7 13.8 98 -999
2010-08-19 08:23:30 51°23.95 2°58.706 104.7 13.8 98 -999
2010-08-19 08:23:40 51°23.943 2°58.771 104.7 13.8 98 -999
2010-08-19 08:23:50 51°23.937 2°58.825 104.7 13.8 98 -999
2010-08-19 08:24:00 51°23.932 2°58.889 100.9 13.09 100 -999
2010-08-19 08:24:10 51°23.93 2°58.944 100.9 13.09 100 -999
2010-08-19 08:24:20 51°23.927 2°59.009 100.9 13.09 100 -999
2010-08-19 08:24:30 51°23.925 2°59.065 100.9 13.09 100 -999
2010-08-19 08:24:40 51°23.922 2°59.131 100.9 13.09 100 -999
2010-08-19 08:24:50 51°23.916 2°59.185 100.9 13.09 100 -999
2010-08-19 08:25:00 51°23.913 2°59.252 99.4 13.9 95 -999
2010-08-19 08:25:10 51°23.909 2°59.306 99.4 13.9 95 -999
2010-08-19 08:25:20 51°23.905 2°59.373 99.4 13.9 95 -999
2010-08-19 08:25:30 51°23.903 2°59.428 99.4 13.9 95 -999
2010-08-19 08:25:40 51°23.899 2°59.489 99.4 13.9 95 -999
2010-08-19 08:25:50 51°23.897 2°59.55 99.4 13.9 95 -999
2010-08-19 08:26:00 51°23.895 2°59.611 97.2 13.69 94 -999
2010-08-19 08:26:10 51°23.892 2°59.673 97.2 13.69 94 -999
2010-08-19 08:26:20 51°23.891 2°59.733 97.2 13.69 94 -999
2010-08-19 08:26:30 51°23.888 2°59.796 97.2 13.69 94 -999
2010-08-19 08:26:40 51°23.886 2°59.858 97.2 13.69 94 -999
2010-08-19 08:26:50 51°23.882 2°59.921 97.2 13.69 94 -999
2010-08-19 08:27:00 51°23.881 2°59.983 96.2 13.8 94 -999
2010-08-19 08:27:10 51°23.881 3°0.046 96.2 13.8 94 -999
2010-08-19 08:27:20 51°23.881 3°0.115 96.2 13.8 94 -999
2010-08-19 08:27:30 51°23.882 3°0.172 96.2 13.8 94 -999
2010-08-19 08:27:40 51°23.883 3°0.241 96.2 13.8 94 -999
2010-08-19 08:27:50 51°23.882 3°0.297 96.2 13.8 94 -999
2010-08-19 08:28:00 51°23.883 3°0.362 93 14.59 89 -999
2010-08-19 08:28:10 51°23.883 3°0.423 93 14.59 89 -999
2010-08-19 08:28:20 51°23.884 3°0.493 93 14.59 89 -999
2010-08-19 08:28:30 51°23.886 3°0.549 93 14.59 89 -999
2010-08-19 08:28:40 51°23.886 3°0.617 93 14.59 89 -999
2010-08-19 08:28:50 51°23.887 3°0.673 93 14.59 89 -999
2010-08-19 08:29:00 51°23.888 3°0.743 92 14.3 90 -999
2010-08-19 08:29:10 51°23.889 3°0.799 92 14.3 90 -999
2010-08-19 08:29:20 51°23.889 3°0.868 92 14.3 90 -999
2010-08-19 08:29:30 51°23.889 3°0.924 92 14.3 90 -999
2010-08-19 08:29:40 51°23.889 3°0.993 92 14.3 90 -999
2010-08-19 08:29:50 51°23.888 3°1.048 92 14.3 90 -999
2010-08-19 08:30:00 51°23.889 3°1.11 93 13.8 91 -999
2010-08-19 08:30:10 51°23.889 3°1.17 93 13.8 91 -999
2010-08-19 08:30:20 51°23.889 3°1.239 93 13.8 91 -999
2010-08-19 08:30:30 51°23.89 3°1.294 93 13.8 91 -999
2010-08-19 08:30:40 51°23.89 3°1.363 93 13.8 91 -999
2010-08-19 08:30:50 51°23.891 3°1.418 93 13.8 91 -999
2010-08-19 08:31:00 51°23.892 3°1.487 91.7 14.09 89 -999
2010-08-19 08:31:10 51°23.892 3°1.549 91.7 14.09 89 -999
2010-08-19 08:31:20 51°23.893 3°1.61 91.7 14.09 89 -999
2010-08-19 08:31:30 51°23.894 3°1.667 91.7 14.09 89 -999
2010-08-19 08:31:40 51°23.894 3°1.735 91.7 14.09 89 -999
2010-08-19 08:31:50 51°23.894 3°1.789 91.7 14.09 89 -999
2010-08-19 08:32:00 51°23.896 3°1.856 91.7 13.69 89 -999
2010-08-19 08:32:10 51°23.897 3°1.911 91.7 13.69 89 -999
2010-08-19 08:32:20 51°23.897 3°1.973 91.7 13.69 89 -999
2010-08-19 08:32:30 51°23.898 3°2.034 91.7 13.69 89 -999
2010-08-19 08:32:40 51°23.898 3°2.103 91.7 13.69 89 -999
2010-08-19 08:32:50 51°23.898 3°2.158 91.7 13.69 89 -999
2010-08-19 08:33:00 51°23.897 3°2.226 93.7 14 91 -999
2010-08-19 08:33:10 51°23.897 3°2.282 93.7 14 91 -999
2010-08-19 08:33:20 51°23.897 3°2.343 93.7 14 91 -999
2010-08-19 08:33:30 51°23.897 3°2.405 93.7 14 91 -999
2010-08-19 08:33:40 51°23.898 3°2.473 93.7 14 91 -999
2010-08-19 08:33:50 51°23.9 3°2.529 93.7 14 91 -999
2010-08-19 08:34:00 51°23.901 3°2.597 92.2 14.09 89 -999
2010-08-19 08:34:10 51°23.902 3°2.654 92.2 14.09 89 -999
2010-08-19 08:34:20 51°23.904 3°2.717 92.2 14.09 89 -999
2010-08-19 08:34:30 51°23.907 3°2.786 92.2 14.09 89 -999
2010-08-19 08:34:40 51°23.91 3°2.849 92.2 14.09 89 -999
2010-08-19 08:34:50 51°23.91 3°2.904 92.2 14.09 89 -999
2010-08-19 08:35:00 51°23.9 3°2.965 106 12.8 112 -999
2010-08-19 08:35:10 51°23.885 3°3.009 106 12.8 112 -999
2010-08-19 08:35:20 51°23.867 3°3.067 106 12.8 112 -999
2010-08-19 08:35:30 51°23.851 3°3.112 106 12.8 112 -999
2010-08-19 08:35:40 51°23.832 3°3.171 106 12.8 112 -999
2010-08-19 08:35:50 51°23.815 3°3.216 106 12.8 112 -999
2010-08-19 08:36:00 51°23.797 3°3.276 121.2 13.59 116 -999
2010-08-19 08:36:10 51°23.781 3°3.323 121.2 13.59 116 -999
2010-08-19 08:36:20 51°23.766 3°3.377 121.2 13.59 116 -999
2010-08-19 08:36:30 51°23.753 3°3.433 121.2 13.59 116 -999
2010-08-19 08:36:40 51°23.741 3°3.489 121.2 13.59 116 -999
2010-08-19 08:36:50 51°23.733 3°3.548 121.2 13.59 116 -999
2010-08-19 08:37:00 51°23.729 3°3.613 100.7 13.3 96 -999
2010-08-19 08:37:10 51°23.73 3°3.666 100.7 13.3 96 -999
2010-08-19 08:37:20 51°23.735 3°3.731 100.7 13.3 96 -999
2010-08-19 08:37:30 51°23.744 3°3.784 100.7 13.3 96 -999
2010-08-19 08:37:40 51°23.754 3°3.842 100.7 13.3 96 -999
2010-08-19 08:37:50 51°23.766 3°3.9 100.7 13.3 96 -999
2010-08-19 08:38:00 51°23.782 3°3.962 71.2 13.8 69 -999
2010-08-19 08:38:10 51°23.798 3°4.011 71.2 13.8 69 -999
2010-08-19 08:38:20 51°23.825 3°4.063 71.2 13.8 69 -999
2010-08-19 08:38:30 51°23.849 3°4.1 71.2 13.8 69 -999
2010-08-19 08:38:40 51°23.883 3°4.135 71.2 13.8 69 -999
2010-08-19 08:38:50 51°23.912 3°4.162 71.2 13.8 69 -999
2010-08-19 08:39:00 51°23.95 3°4.189 26.1 13.59 20 -999
2010-08-19 08:39:10 51°23.98 3°4.214 26.1 13.59 20 -999
2010-08-19 08:39:20 51°24.019 3°4.243 26.1 13.59 20 -999
2010-08-19 08:39:30 51°24.048 3°4.272 26.1 13.59 20 -999
2010-08-19 08:39:40 51°24.083 3°4.311 26.1 13.59 20 -999
2010-08-19 08:39:50 51°24.109 3°4.348 26.1 13.59 20 -999
2010-08-19 08:40:00 51°24.138 3°4.397 45.1 14 47 -999
2010-08-19 08:40:10 51°24.158 3°4.443 45.1 14 47 -999
2010-08-19 08:40:20 51°24.173 3°4.505 45.1 14 47 -999
2010-08-19 08:40:30 51°24.174 3°4.558 45.1 14 47 -999
2010-08-19 08:40:40 51°24.169 3°4.623 45.1 14 47 -999
2010-08-19 08:40:50 51°24.164 3°4.676 45.1 14 47 -999
2010-08-19 08:41:00 51°24.158 3°4.743 102.7 13.8 95 -999
2010-08-19 08:41:10 51°24.154 3°4.797 102.7 13.8 95 -999
2010-08-19 08:41:20 51°24.149 3°4.857 102.7 13.8 95 -999
2010-08-19 08:41:30 51°24.143 3°4.918 102.7 13.8 95 -999
2010-08-19 08:41:40 51°24.137 3°4.978 102.7 13.8 95 -999
2010-08-19 08:41:50 51°24.13 3°5.038 102.7 13.8 95 -999
2010-08-19 08:42:00 51°24.122 3°5.103 102.4 13.5 100 -999
2010-08-19 08:42:10 51°24.117 3°5.157 102.4 13.5 100 -999
2010-08-19 08:42:20 51°24.111 3°5.217 102.4 13.5 100 -999
2010-08-19 08:42:30 51°24.107 3°5.277 102.4 13.5 100 -999
2010-08-19 08:42:40 51°24.101 3°5.336 102.4 13.5 100 -999
2010-08-19 08:42:50 51°24.096 3°5.396 102.4 13.5 100 -999
2010-08-19 08:43:00 51°24.09 3°5.456 101.7 13.8 99 -999
2010-08-19 08:43:10 51°24.085 3°5.516 101.7 13.8 99 -999
2010-08-19 08:43:20 51°24.078 3°5.576 101.7 13.8 99 -999
2010-08-19 08:43:30 51°24.073 3°5.635 101.7 13.8 99 -999
2010-08-19 08:43:40 51°24.066 3°5.695 101.7 13.8 99 -999
2010-08-19 08:43:50 51°24.059 3°5.754 101.7 13.8 99 -999
2010-08-19 08:44:00 51°24.052 3°5.819 104.2 13.5 102 -999
2010-08-19 08:44:10 51°24.046 3°5.873 104.2 13.5 102 -999
2010-08-19 08:44:20 51°24.04 3°5.932 104.2 13.5 102 -999
2010-08-19 08:44:30 51°24.035 3°5.991 104.2 13.5 102 -999
2010-08-19 08:44:40 51°24.028 3°6.05 104.2 13.5 102 -999
2010-08-19 08:44:50 51°24.021 3°6.11 104.2 13.5 102 -999
2010-08-19 08:45:00 51°24.015 3°6.176 102.4 13.69 102 -999
2010-08-19 08:45:10 51°24.011 3°6.23 102.4 13.69 102 -999
2010-08-19 08:45:20 51°24.007 3°6.296 102.4 13.69 102 -999
2010-08-19 08:45:30 51°24.003 3°6.351 102.4 13.69 102 -999
2010-08-19 08:45:40 51°24 3°6.416 102.4 13.69 102 -999
2010-08-19 08:45:50 51°24 3°6.469 102.4 13.69 102 -999
2010-08-19 08:46:00 51°23.997 3°6.535 97.2 13.4 91 -999
2010-08-19 08:46:10 51°23.995 3°6.588 97.2 13.4 91 -999
2010-08-19 08:46:20 51°23.994 3°6.653 97.2 13.4 91 -999
2010-08-19 08:46:30 51°23.993 3°6.706 97.2 13.4 91 -999
2010-08-19 08:46:40 51°23.993 3°6.766 97.2 13.4 91 -999
2010-08-19 08:46:50 51°23.993 3°6.833 97.2 13.4 91 -999
2010-08-19 08:47:00 51°23.993 3°6.894 92.5 13.8 90 -999
2010-08-19 08:47:10 51°23.995 3°6.949 92.5 13.8 90 -999
2010-08-19 08:47:20 51°23.996 3°7.017 92.5 13.8 90 -999
2010-08-19 08:47:30 51°23.997 3°7.072 92.5 13.8 90 -999
2010-08-19 08:47:40 51°23.998 3°7.141 92.5 13.8 90 -999
2010-08-19 08:47:50 51°23.998 3°7.195 92.5 13.8 90 -999
2010-08-19 08:48:00 51°23.998 3°7.262 92.7 14 89 -999
2010-08-19 08:48:10 51°23.998 3°7.317 92.7 14 89 -999
2010-08-19 08:48:20 51°24 3°7.378 92.7 14 89 -999
2010-08-19 08:48:30 51°23.999 3°7.439 92.7 14 89 -999
2010-08-19 08:48:40 51°24 3°7.506 92.7 14 89 -999
2010-08-19 08:48:50 51°24 3°7.56 92.7 14 89 -999
2010-08-19 08:49:00 51°24 3°7.62 92.5 13.5 91 -999
2010-08-19 08:49:10 51°24 3°7.68 92.5 13.5 91 -999
2010-08-19 08:49:20 51°24 3°7.74 92.5 13.5 91 -999
2010-08-19 08:49:30 51°24.002 3°7.8 92.5 13.5 91 -999
2010-08-19 08:49:40 51°24.004 3°7.867 92.5 13.5 91 -999
2010-08-19 08:49:50 51°24.006 3°7.922 92.5 13.5 91 -999
2010-08-19 08:50:00 51°24.009 3°7.982 88.5 13.69 85 -999
2010-08-19 08:50:10 51°24.012 3°8.042 88.5 13.69 85 -999
2010-08-19 08:50:20 51°24.015 3°8.109 88.5 13.69 85 -999
2010-08-19 08:50:30 51°24.017 3°8.162 88.5 13.69 85 -999
2010-08-19 08:50:40 51°24.02 3°8.229 88.5 13.69 85 -999
2010-08-19 08:50:50 51°24.022 3°8.284 88.5 13.69 85 -999
2010-08-19 08:51:00 51°24.025 3°8.352 88.5 13.9 88 -999
2010-08-19 08:51:10 51°24.028 3°8.408 88.5 13.9 88 -999
2010-08-19 08:51:20 51°24.032 3°8.471 88.5 13.9 88 -999
2010-08-19 08:51:30 51°24.034 3°8.533 88.5 13.9 88 -999
2010-08-19 08:51:40 51°24.036 3°8.601 88.5 13.9 88 -999
2010-08-19 08:51:50 51°24.038 3°8.657 88.5 13.9 88 -999
2010-08-19 08:52:00 51°24.041 3°8.725 89.5 14 87 -999
2010-08-19 08:52:10 51°24.043 3°8.78 89.5 14 87 -999
2010-08-19 08:52:20 51°24.044 3°8.841 89.5 14 87 -999
2010-08-19 08:52:30 51°24.048 3°8.903 89.5 14 87 -999
2010-08-19 08:52:40 51°24.051 3°8.97 89.5 14 87 -999
2010-08-19 08:52:50 51°24.055 3°9.026 89.5 14 87 -999
2010-08-19 08:53:00 51°24.059 3°9.093 85.9 13.8 83 -999
2010-08-19 08:53:10 51°24.064 3°9.149 85.9 13.8 83 -999
2010-08-19 08:53:20 51°24.068 3°9.21 85.9 13.8 83 -999
2010-08-19 08:53:30 51°24.071 3°9.272 85.9 13.8 83 -999
2010-08-19 08:53:40 51°24.075 3°9.34 85.9 13.8 83 -999
2010-08-19 08:53:50 51°24.079 3°9.396 85.9 13.8 83 -999
2010-08-19 08:54:00 51°24.083 3°9.465 86.2 14.09 87 -999
2010-08-19 08:54:10 51°24.088 3°9.521 86.2 14.09 87 -999
2010-08-19 08:54:20 51°24.094 3°9.581 86.2 14.09 87 -999
2010-08-19 08:54:30 51°24.101 3°9.644 86.2 14.09 87 -999
2010-08-19 08:54:40 51°24.108 3°9.711 86.2 14.09 87 -999
2010-08-19 08:54:50 51°24.115 3°9.767 86.2 14.09 87 -999
2010-08-19 08:55:00 51°24.122 3°9.835 81.7 14.3 78 -999
2010-08-19 08:55:10 51°24.129 3°9.892 81.7 14.3 78 -999
2010-08-19 08:55:20 51°24.136 3°9.958 81.7 14.3 78 -999
2010-08-19 08:55:30 51°24.143 3°10.013 81.7 14.3 78 -999
2010-08-19 08:55:40 51°24.151 3°10.08 81.7 14.3 78 -999
2010-08-19 08:55:50 51°24.159 3°10.135 81.7 14.3 78 -999
2010-08-19 08:56:00 51°24.168 3°10.203 80.5 14.19 74 -999
2010-08-19 08:56:10 51°24.174 3°10.258 80.5 14.19 74 -999
2010-08-19 08:56:20 51°24.182 3°10.326 80.5 14.19 74 -999
2010-08-19 08:56:30 51°24.19 3°10.382 80.5 14.19 74 -999
2010-08-19 08:56:40 51°24.201 3°10.45 80.5 14.19 74 -999
2010-08-19 08:56:50 51°24.209 3°10.505 80.5 14.19 74 -999
2010-08-19 08:57:00 51°24.219 3°10.574 78.7 14.3 76 -999
2010-08-19 08:57:10 51°24.228 3°10.629 78.7 14.3 76 -999
2010-08-19 08:57:20 51°24.238 3°10.691 78.7 14.3 76 -999
2010-08-19 08:57:30 51°24.249 3°10.751 78.7 14.3 76 -999
2010-08-19 08:57:40 51°24.26 3°10.813 78.7 14.3 76 -999
2010-08-19 08:57:50 51°24.27 3°10.873 78.7 14.3 76 -999
2010-08-19 08:58:00 51°24.283 3°10.94 74.7 14.5 73 -999
2010-08-19 08:58:10 51°24.294 3°10.994 74.7 14.5 73 -999
2010-08-19 08:58:20 51°24.306 3°11.054 74.7 14.5 73 -999
2010-08-19 08:58:30 51°24.318 3°11.113 74.7 14.5 73 -999
2010-08-19 08:58:40 51°24.331 3°11.178 74.7 14.5 73 -999
2010-08-19 08:58:50 51°24.341 3°11.231 74.7 14.5 73 -999
2010-08-19 08:59:00 51°24.354 3°11.29 73.4 14 72 -999
2010-08-19 08:59:10 51°24.366 3°11.349 73.4 14 72 -999
2010-08-19 08:59:20 51°24.378 3°11.409 73.4 14 72 -999
2010-08-19 08:59:30 51°24.39 3°11.47 73.4 14 72 -999
2010-08-19 08:59:40 51°24.402 3°11.53 73.4 14 72 -999
2010-08-19 08:59:50 51°24.413 3°11.59 73.4 14 72 -999
2010-08-19 09:00:00 51°24.424 3°11.65 75.4 14.4 73 -999
2010-08-19 09:00:10 51°24.436 3°11.71 75.4 14.4 73 -999
2010-08-19 09:00:20 51°24.448 3°11.77 75.4 14.4 73 -999
2010-08-19 09:00:30 51°24.46 3°11.827 75.4 14.4 73 -999
2010-08-19 09:00:40 51°24.475 3°11.889 75.4 14.4 73 -999
2010-08-19 09:00:50 51°24.487 3°11.938 75.4 14.4 73 -999
2010-08-19 09:01:00 51°24.501 3°12 70.4 13.59 70 -999
2010-08-19 09:01:10 51°24.513 3°12.05 70.4 13.59 70 -999
2010-08-19 09:01:20 51°24.526 3°12.106 70.4 13.59 70 -999
2010-08-19 09:01:30 51°24.539 3°12.159 70.4 13.59 70 -999
2010-08-19 09:01:40 51°24.55 3°12.208 70.4 13.59 70 -999
2010-08-19 09:01:50 51°24.562 3°12.255 70.4 13.59 70 -999
2010-08-19 09:02:00 51°24.573 3°12.301 70.2 10.9 69 -999
2010-08-19 09:02:10 51°24.584 3°12.346 70.2 10.9 69 -999
2010-08-19 09:02:20 51°24.593 3°12.387 70.2 10.9 69 -999
2010-08-19 09:02:30 51°24.603 3°12.426 70.2 10.9 69 -999
2010-08-19 09:02:40 51°24.613 3°12.462 70.2 10.9 69 -999
2010-08-19 09:02:50 51°24.624 3°12.495 70.2 10.9 69 -999
2010-08-19 09:03:00 51°24.635 3°12.528 60.5 7.59 60 -999
2010-08-19 09:03:10 51°24.645 3°12.552 60.5 7.59 60 -999
2010-08-19 09:03:20 51°24.658 3°12.577 60.5 7.59 60 -999
2010-08-19 09:03:30 51°24.669 3°12.595 60.5 7.59 60 -999
2010-08-19 09:03:40 51°24.681 3°12.615 60.5 7.59 60 -999
2010-08-19 09:03:50 51°24.693 3°12.632 60.5 7.59 60 -999
2010-08-19 09:04:00 51°24.705 3°12.647 28.6 5.4 38 -999
2010-08-19 09:04:10 51°24.716 3°12.658 28.6 5.4 38 -999
2010-08-19 09:04:20 51°24.728 3°12.668 28.6 5.4 38 -999
2010-08-19 09:04:30 51°24.738 3°12.677 28.6 5.4 38 -999
2010-08-19 09:04:40 51°24.747 3°12.684 28.6 5.4 38 -999
2010-08-19 09:04:50 51°24.757 3°12.691 28.6 5.4 38 -999
2010-08-19 09:05:00 51°24.766 3°12.696 358.8 3.29 20 -999
2010-08-19 09:05:10 51°24.774 3°12.701 358.8 3.29 20 -999
2010-08-19 09:05:20 51°24.781 3°12.705 358.8 3.29 20 -999
2010-08-19 09:05:30 51°24.789 3°12.709 358.8 3.29 20 -999
2010-08-19 09:05:40 51°24.797 3°12.713 358.8 3.29 20 -999
2010-08-19 09:05:50 51°24.803 3°12.717 358.8 3.29 20 -999
2010-08-19 09:06:00 51°24.81 3°12.72 340 2.39 19 -999
2010-08-19 09:06:10 51°24.815 3°12.723 340 2.39 19 -999
2010-08-19 09:06:20 51°24.822 3°12.726 340 2.39 19 -999
2010-08-19 09:06:30 51°24.827 3°12.728 340 2.39 19 -999
2010-08-19 09:06:40 51°24.832 3°12.731 340 2.39 19 -999
2010-08-19 09:06:50 51°24.836 3°12.732 340 2.39 19 -999
2010-08-19 09:07:00 51°24.841 3°12.735 317.8 1.69 17 -999
2010-08-19 09:07:10 51°24.844 3°12.736 317.8 1.69 17 -999
2010-08-19 09:07:20 51°24.849 3°12.737 317.8 1.69 17 -999
2010-08-19 09:07:30 51°24.852 3°12.738 317.8 1.69 17 -999
2010-08-19 09:07:40 51°24.857 3°12.735 317.8 1.69 17 -999
2010-08-19 09:07:50 51°24.859 3°12.734 317.8 1.69 17 -999
2010-08-19 09:08:00 51°24.863 3°12.729 283.1 1.5 321 -999
2010-08-19 09:08:10 51°24.865 3°12.724 283.1 1.5 321 -999
2010-08-19 09:08:20 51°24.867 3°12.718 283.1 1.5 321 -999
2010-08-19 09:08:30 51°24.869 3°12.71 283.1 1.5 321 -999
2010-08-19 09:08:40 51°24.87 3°12.702 283.1 1.5 321 -999
2010-08-19 09:08:50 51°24.872 3°12.693 283.1 1.5 321 -999
2010-08-19 09:09:00 51°24.873 3°12.682 265.8 2.5 275 -999
2010-08-19 09:09:10 51°24.873 3°12.672 265.8 2.5 275 -999
2010-08-19 09:09:20 51°24.873 3°12.659 265.8 2.5 275 -999
2010-08-19 09:09:30 51°24.873 3°12.648 265.8 2.5 275 -999
2010-08-19 09:09:40 51°24.873 3°12.635 265.8 2.5 275 -999
2010-08-19 09:09:50 51°24.871 3°12.625 265.8 2.5 275 -999
2010-08-19 09:10:00 51°24.869 3°12.615 244.5 2.39 247 -999
2010-08-19 09:10:10 51°24.866 3°12.606 244.5 2.39 247 -999
2010-08-19 09:10:20 51°24.862 3°12.599 244.5 2.39 247 -999
2010-08-19 09:10:30 51°24.859 3°12.594 244.5 2.39 247 -999
2010-08-19 09:10:40 51°24.856 3°12.589 244.5 2.39 247 -999
2010-08-19 09:10:50 51°24.854 3°12.586 244.5 2.39 247 -999
2010-08-19 09:11:00 51°24.851 3°12.583 227.4 1 217 -999
2010-08-19 09:11:10 51°24.849 3°12.58 227.4 1 217 -999
2010-08-19 09:11:20 51°24.846 3°12.579 227.4 1 217 -999
2010-08-19 09:11:30 51°24.844 3°12.578 227.4 1 217 -999
2010-08-19 09:11:40 51°24.842 3°12.578 227.4 1 217 -999
2010-08-19 09:11:50 51°24.84 3°12.578 227.4 1 217 -999
2010-08-19 09:12:00 51°24.838 3°12.579 217.4 0.59 161 -999
2010-08-19 09:12:10 51°24.837 3°12.58 217.4 0.59 161 -999
2010-08-19 09:12:20 51°24.835 3°12.583 217.4 0.59 161 -999
2010-08-19 09:12:30 51°24.834 3°12.585 217.4 0.59 161 -999
2010-08-19 09:12:40 51°24.833 3°12.588 217.4 0.59 161 -999
2010-08-19 09:12:50 51°24.832 3°12.592 217.4 0.59 161 -999
2010-08-19 09:13:00 51°24.831 3°12.596 205.8 0.9 110 -999
2010-08-19 09:13:10 51°24.83 3°12.599 205.8 0.9 110 -999
2010-08-19 09:13:20 51°24.83 3°12.604 205.8 0.9 110 -999
2010-08-19 09:13:30 51°24.829 3°12.608 205.8 0.9 110 -999
2010-08-19 09:13:40 51°24.829 3°12.614 205.8 0.9 110 -999
2010-08-19 09:13:50 51°24.829 3°12.618 205.8 0.9 110 -999
2010-08-19 09:14:00 51°24.829 3°12.625 191.6 1.3 87 -999
2010-08-19 09:14:10 51°24.829 3°12.63 191.6 1.3 87 -999
2010-08-19 09:14:20 51°24.829 3°12.636 191.6 1.3 87 -999
2010-08-19 09:14:30 51°24.83 3°12.643 191.6 1.3 87 -999
2010-08-19 09:14:40 51°24.831 3°12.649 191.6 1.3 87 -999
2010-08-19 09:14:50 51°24.832 3°12.655 191.6 1.3 87 -999
2010-08-19 09:15:00 51°24.833 3°12.662 168.5 1.3 72 -999
2010-08-19 09:15:10 51°24.834 3°12.668 168.5 1.3 72 -999
2010-08-19 09:15:20 51°24.835 3°12.675 168.5 1.3 72 -999
2010-08-19 09:15:30 51°24.836 3°12.682 168.5 1.3 72 -999
2010-08-19 09:15:40 51°24.837 3°12.688 168.5 1.3 72 -999
2010-08-19 09:15:50 51°24.839 3°12.694 168.5 1.3 72 -999
2010-08-19 09:16:00 51°24.84 3°12.702 145.5 1.5 76 -999
2010-08-19 09:16:10 51°24.841 3°12.708 145.5 1.5 76 -999
2010-08-19 09:16:20 51°24.843 3°12.715 145.5 1.5 76 -999
2010-08-19 09:16:30 51°24.844 3°12.721 145.5 1.5 76 -999
2010-08-19 09:16:40 51°24.845 3°12.728 145.5 1.5 76 -999
2010-08-19 09:16:50 51°24.846 3°12.735 145.5 1.5 76 -999
2010-08-19 09:17:00 51°24.848 3°12.741 132.5 1.6 72 -999
2010-08-19 09:17:10 51°24.849 3°12.749 132.5 1.6 72 -999
2010-08-19 09:17:20 51°24.851 3°12.756 132.5 1.6 72 -999
2010-08-19 09:17:30 51°24.853 3°12.762 132.5 1.6 72 -999
2010-08-19 09:17:40 51°24.854 3°12.77 132.5 1.6 72 -999
2010-08-19 09:17:50 51°24.856 3°12.776 132.5 1.6 72 -999
2010-08-19 09:18:00 51°24.858 3°12.783 130 1.6 68 -999
2010-08-19 09:18:10 51°24.859 3°12.79 130 1.6 68 -999
2010-08-19 09:18:20 51°24.861 3°12.797 130 1.6 68 -999
2010-08-19 09:18:30 51°24.862 3°12.803 130 1.6 68 -999
2010-08-19 09:18:40 51°24.863 3°12.811 130 1.6 68 -999
2010-08-19 09:18:50 51°24.863 3°12.819 130 1.6 68 -999
2010-08-19 09:19:00 51°24.86 3°12.83 140.3 2.7 121 -999
2010-08-19 09:19:10 51°24.853 3°12.84 140.3 2.7 121 -999
2010-08-19 09:19:20 51°24.842 3°12.848 140.3 2.7 121 -999
2010-08-19 09:19:30 51°24.83 3°12.848 140.3 2.7 121 -999
2010-08-19 09:19:40 51°24.816 3°12.838 140.3 2.7 121 -999
2010-08-19 09:19:50 51°24.807 3°12.823 140.3 2.7 121 -999
2010-08-19 09:20:00 51°24.804 3°12.797 247.8 5.5 263 -999
2010-08-19 09:20:10 51°24.807 3°12.774 247.8 5.5 263 -999
2010-08-19 09:20:20 51°24.819 3°12.75 247.8 5.5 263 -999
2010-08-19 09:20:30 51°24.836 3°12.735 247.8 5.5 263 -999
2010-08-19 09:20:40 51°24.863 3°12.719 247.8 5.5 263 -999
2010-08-19 09:20:50 51°24.886 3°12.701 247.8 5.5 263 -999
2010-08-19 09:21:00 51°24.906 3°12.67 314.3 10.5 314 -999
2010-08-19 09:21:10 51°24.927 3°12.633 314.3 10.5 314 -999
2010-08-19 09:21:20 51°24.948 3°12.595 314.3 10.5 314 -999
2010-08-19 09:21:30 51°24.97 3°12.555 314.3 10.5 314 -999
2010-08-19 09:21:40 51°24.994 3°12.51 314.3 10.5 314 -999
2010-08-19 09:21:50 51°25.014 3°12.473 314.3 10.5 314 -999
2010-08-19 09:22:00 51°25.036 3°12.431 307.1 12.3 310 -999
2010-08-19 09:22:10 51°25.058 3°12.388 307.1 12.3 310 -999
2010-08-19 09:22:20 51°25.08 3°12.346 307.1 12.3 310 -999
2010-08-19 09:22:30 51°25.103 3°12.304 307.1 12.3 310 -999
2010-08-19 09:22:40 51°25.128 3°12.257 307.1 12.3 310 -999
2010-08-19 09:22:50 51°25.149 3°12.219 307.1 12.3 310 -999
2010-08-19 09:23:00 51°25.171 3°12.177 307.8 12.59 311 -999
2010-08-19 09:23:10 51°25.194 3°12.134 307.8 12.59 311 -999
2010-08-19 09:23:20 51°25.217 3°12.092 307.8 12.59 311 -999
2010-08-19 09:23:30 51°25.239 3°12.048 307.8 12.59 311 -999
2010-08-19 09:23:40 51°25.265 3°12.001 307.8 12.59 311 -999
2010-08-19 09:23:50 51°25.286 3°11.963 307.8 12.59 311 -999
2010-08-19 09:24:00 51°25.309 3°11.92 308.3 12.8 311 -999
2010-08-19 09:24:10 51°25.332 3°11.877 308.3 12.8 311 -999
2010-08-19 09:24:20 51°25.357 3°11.83 308.3 12.8 311 -999
2010-08-19 09:24:30 51°25.378 3°11.79 308.3 12.8 311 -999
2010-08-19 09:24:40 51°25.403 3°11.744 308.3 12.8 311 -999
2010-08-19 09:24:50 51°25.424 3°11.705 308.3 12.8 311 -999
2010-08-19 09:25:00 51°25.449 3°11.657 307.6 12.69 309 -999
2010-08-19 09:25:10 51°25.47 3°11.619 307.6 12.69 309 -999
2010-08-19 09:25:20 51°25.495 3°11.572 307.6 12.69 309 -999
2010-08-19 09:25:30 51°25.516 3°11.533 307.6 12.69 309 -999
2010-08-19 09:25:40 51°25.542 3°11.485 307.6 12.69 309 -999
2010-08-19 09:25:50 51°25.562 3°11.446 307.6 12.69 309 -999
2010-08-19 09:26:00 51°25.587 3°11.401 307.8 12.09 311 -999
2010-08-19 09:26:10 51°25.606 3°11.367 307.8 12.09 311 -999
2010-08-19 09:26:20 51°25.627 3°11.331 307.8 12.09 311 -999
2010-08-19 09:26:30 51°25.643 3°11.304 307.8 12.09 311 -999
2010-08-19 09:26:40 51°25.661 3°11.274 307.8 12.09 311 -999
2010-08-19 09:26:50 51°25.675 3°11.251 307.8 12.09 311 -999
2010-08-19 09:27:00 51°25.691 3°11.228 312.1 7.59 318 -999
2010-08-19 09:27:10 51°25.708 3°11.209 312.1 7.59 318 -999
2010-08-19 09:27:20 51°25.726 3°11.189 312.1 7.59 318 -999
2010-08-19 09:27:30 51°25.741 3°11.174 312.1 7.59 318 -999
2010-08-19 09:27:40 51°25.759 3°11.157 312.1 7.59 318 -999
2010-08-19 09:27:50 51°25.776 3°11.143 312.1 7.59 318 -999
2010-08-19 09:28:00 51°25.795 3°11.126 325.6 7.4 332 -999
2010-08-19 09:28:10 51°25.812 3°11.112 325.6 7.4 332 -999
2010-08-19 09:28:20 51°25.832 3°11.093 325.6 7.4 332 -999
2010-08-19 09:28:30 51°25.849 3°11.079 325.6 7.4 332 -999
2010-08-19 09:28:40 51°25.871 3°11.06 325.6 7.4 332 -999
2010-08-19 09:28:50 51°25.888 3°11.045 325.6 7.4 332 -999
2010-08-19 09:29:00 51°25.907 3°11.026 325.8 8.09 329 -999
2010-08-19 09:29:10 51°25.927 3°11.01 325.8 8.09 329 -999
2010-08-19 09:29:20 51°25.949 3°10.99 325.8 8.09 329 -999
2010-08-19 09:29:30 51°25.968 3°10.972 325.8 8.09 329 -999
2010-08-19 09:29:40 51°25.99 3°10.951 325.8 8.09 329 -999
2010-08-19 09:29:50 51°26.014 3°10.929 325.8 8.09 329 -999
2010-08-19 09:30:00 51°26.039 3°10.905 325.5 9.69 330 -999
2010-08-19 09:30:10 51°26.06 3°10.885 325.5 9.69 330 -999
2010-08-19 09:30:20 51°26.087 3°10.859 325.5 9.69 330 -999
2010-08-19 09:30:30 51°26.109 3°10.837 325.5 9.69 330 -999
2010-08-19 09:30:40 51°26.139 3°10.806 325.5 9.69 330 -999
2010-08-19 09:30:50 51°26.165 3°10.78 325.5 9.69 330 -999
2010-08-19 09:31:00 51°26.197 3°10.747 324.3 12.59 327 -999
2010-08-19 09:31:10 51°26.223 3°10.718 324.3 12.59 327 -999
2010-08-19 09:31:20 51°26.253 3°10.685 324.3 12.59 327 -999
2010-08-19 09:31:30 51°26.283 3°10.651 324.3 12.59 327 -999
2010-08-19 09:31:40 51°26.313 3°10.617 324.3 12.59 327 -999
2010-08-19 09:31:50 51°26.342 3°10.58 324.3 12.59 327 -999
2010-08-19 09:32:00 51°26.372 3°10.538 317.3 13.09 319 -999
2010-08-19 09:32:10 51°26.397 3°10.502 317.3 13.09 319 -999
2010-08-19 09:32:20 51°26.424 3°10.462 317.3 13.09 319 -999
2010-08-19 09:32:30 51°26.451 3°10.42 317.3 13.09 319 -999
2010-08-19 09:32:40 51°26.478 3°10.38 317.3 13.09 319 -999
2010-08-19 09:32:50 51°26.505 3°10.34 317.3 13.09 319 -999
2010-08-19 09:33:00 51°26.534 3°10.296 314.3 13.3 317 -999
2010-08-19 09:33:10 51°26.559 3°10.26 314.3 13.3 317 -999
2010-08-19 09:33:20 51°26.587 3°10.221 314.3 13.3 317 -999
2010-08-19 09:33:30 51°26.615 3°10.182 314.3 13.3 317 -999
2010-08-19 09:33:40 51°26.643 3°10.143 314.3 13.3 317 -999
2010-08-19 09:33:50 51°26.67 3°10.105 314.3 13.3 317 -999
2010-08-19 09:34:00 51°26.701 3°10.062 316.1 13.19 320 -999
2010-08-19 09:34:10 51°26.726 3°10.027 316.1 13.19 320 -999
2010-08-19 09:34:20 51°26.754 3°9.989 316.1 13.19 320 -999
2010-08-19 09:34:30 51°26.781 3°9.95 316.1 13.19 320 -999
2010-08-19 09:34:40 51°26.809 3°9.911 316.1 13.19 320 -999
2010-08-19 09:34:50 51°26.836 3°9.872 316.1 13.19 320 -999
2010-08-19 09:35:00 51°26.867 3°9.83 316.1 13.19 319 -999
2010-08-19 09:35:10 51°26.893 3°9.794 316.1 13.19 319 -999
2010-08-19 09:35:20 51°26.921 3°9.756 316.1 13.19 319 -999
2010-08-19 09:35:30 51°26.949 3°9.718 316.1 13.19 319 -999
2010-08-19 09:35:40 51°26.979 3°9.675 316.1 13.19 319 -999
2010-08-19 09:35:50 51°27.005 3°9.64 316.1 13.19 319 -999
2010-08-19 09:36:00 51°27.036 3°9.598 316.3 13.3 319 -999
2010-08-19 09:36:10 51°27.061 3°9.564 316.3 13.3 319 -999
2010-08-19 09:36:20 51°27.089 3°9.525 316.3 13.3 319 -999
2010-08-19 09:36:30 51°27.117 3°9.486 316.3 13.3 319 -999
2010-08-19 09:36:40 51°27.145 3°9.448 316.3 13.3 319 -999
2010-08-19 09:36:50 51°27.173 3°9.408 316.3 13.3 319 -999
2010-08-19 09:37:00 51°27.204 3°9.367 316.3 13.3 320 -999
2010-08-19 09:37:10 51°27.229 3°9.332 316.3 13.3 320 -999
2010-08-19 09:37:20 51°27.259 3°9.289 316.3 13.3 320 -999
2010-08-19 09:37:30 51°27.285 3°9.253 316.3 13.3 320 -999
2010-08-19 09:37:40 51°27.316 3°9.211 316.3 13.3 320 -999
2010-08-19 09:37:50 51°27.341 3°9.176 316.3 13.3 320 -999
2010-08-19 09:38:00 51°27.372 3°9.133 316.1 13.4 320 -999
2010-08-19 09:38:10 51°27.398 3°9.098 316.1 13.4 320 -999
2010-08-19 09:38:20 51°27.429 3°9.056 316.1 13.4 320 -999
2010-08-19 09:38:30 51°27.455 3°9.022 316.1 13.4 320 -999
2010-08-19 09:38:40 51°27.485 3°8.986 316.1 13.4 320 -999
2010-08-19 09:38:50 51°27.514 3°8.949 316.1 13.4 320 -999
2010-08-19 09:39:00 51°27.547 3°8.908 319.6 13.4 323 -999
2010-08-19 09:39:10 51°27.573 3°8.875 319.6 13.4 323 -999
2010-08-19 09:39:20 51°27.603 3°8.838 319.6 13.4 323 -999
2010-08-19 09:39:30 51°27.633 3°8.802 319.6 13.4 323 -999
2010-08-19 09:39:40 51°27.662 3°8.766 319.6 13.4 323 -999
2010-08-19 09:39:50 51°27.692 3°8.73 319.6 13.4 323 -999
2010-08-19 09:40:00 51°27.724 3°8.69 319.6 13.3 322 -999
2010-08-19 09:40:10 51°27.75 3°8.657 319.6 13.3 322 -999
2010-08-19 09:40:20 51°27.783 3°8.616 319.6 13.3 322 -999
2010-08-19 09:40:30 51°27.809 3°8.583 319.6 13.3 322 -999
2010-08-19 09:40:40 51°27.838 3°8.547 319.6 13.3 322 -999
2010-08-19 09:40:50 51°27.868 3°8.51 319.6 13.3 322 -999
2010-08-19 09:41:00 51°27.9 3°8.47 319.5 13.5 322 -999
2010-08-19 09:41:10 51°27.927 3°8.439 319.5 13.5 322 -999
2010-08-19 09:41:20 51°27.958 3°8.398 319.5 13.5 322 -999
2010-08-19 09:41:30 51°27.985 3°8.365 319.5 13.5 322 -999
2010-08-19 09:41:40 51°28.017 3°8.325 319.5 13.5 322 -999
2010-08-19 09:41:50 51°28.042 3°8.291 319.5 13.5 322 -999
2010-08-19 09:42:00 51°28.075 3°8.252 318.8 13.3 323 -999
2010-08-19 09:42:10 51°28.101 3°8.219 318.8 13.3 323 -999
2010-08-19 09:42:20 51°28.133 3°8.18 318.8 13.3 323 -999
2010-08-19 09:42:30 51°28.159 3°8.147 318.8 13.3 323 -999
2010-08-19 09:42:40 51°28.189 3°8.11 318.8 13.3 323 -999
2010-08-19 09:42:50 51°28.221 3°8.071 318.8 13.3 323 -999
2010-08-19 09:43:00 51°28.251 3°8.035 320 13.4 323 -999
2010-08-19 09:43:10 51°28.276 3°8.001 320 13.4 323 -999
2010-08-19 09:43:20 51°28.308 3°7.961 320 13.4 323 -999
2010-08-19 09:43:30 51°28.335 3°7.929 320 13.4 323 -999
2010-08-19 09:43:40 51°28.367 3°7.889 320 13.4 323 -999
2010-08-19 09:43:50 51°28.394 3°7.855 320 13.4 323 -999
2010-08-19 09:44:00 51°28.425 3°7.816 319.3 13.3 322 -999
2010-08-19 09:44:10 51°28.455 3°7.78 319.3 13.3 322 -999
2010-08-19 09:44:20 51°28.484 3°7.743 319.3 13.3 322 -999
2010-08-19 09:44:30 51°28.51 3°7.71 319.3 13.3 322 -999
2010-08-19 09:44:40 51°28.542 3°7.67 319.3 13.3 322 -999
2010-08-19 09:44:50 51°28.569 3°7.638 319.3 13.3 322 -999
2010-08-19 09:45:00 51°28.601 3°7.598 319.6 13.19 323 -999
2010-08-19 09:45:10 51°28.627 3°7.565 319.6 13.19 323 -999
2010-08-19 09:45:20 51°28.659 3°7.526 319.6 13.19 323 -999
2010-08-19 09:45:30 51°28.685 3°7.494 319.6 13.19 323 -999
2010-08-19 09:45:40 51°28.718 3°7.454 319.6 13.19 323 -999
2010-08-19 09:45:50 51°28.744 3°7.422 319.6 13.19 323 -999
2010-08-19 09:46:00 51°28.776 3°7.382 319.3 13.19 323 -999
2010-08-19 09:46:10 51°28.805 3°7.345 319.3 13.19 323 -999
2010-08-19 09:46:20 51°28.834 3°7.31 319.3 13.19 323 -999
2010-08-19 09:46:30 51°28.86 3°7.277 319.3 13.19 323 -999
2010-08-19 09:46:40 51°28.888 3°7.241 319.3 13.19 323 -999
2010-08-19 09:46:50 51°28.917 3°7.206 319.3 13.19 323 -999
2010-08-19 09:47:00 51°28.946 3°7.17 318.8 13.09 322 -999
2010-08-19 09:47:10 51°28.975 3°7.134 318.8 13.09 322 -999
2010-08-19 09:47:20 51°29.007 3°7.093 318.8 13.09 322 -999
2010-08-19 09:47:30 51°29.033 3°7.061 318.8 13.09 322 -999
2010-08-19 09:47:40 51°29.062 3°7.026 318.8 13.09 322 -999
2010-08-19 09:47:50 51°29.091 3°6.99 318.8 13.09 322 -999
2010-08-19 09:48:00 51°29.123 3°6.951 319.5 13.19 323 -999
2010-08-19 09:48:10 51°29.149 3°6.919 319.5 13.19 323 -999
2010-08-19 09:48:20 51°29.181 3°6.879 319.5 13.19 323 -999
2010-08-19 09:48:30 51°29.208 3°6.847 319.5 13.19 323 -999
2010-08-19 09:48:40 51°29.238 3°6.809 319.5 13.19 323 -999
2010-08-19 09:48:50 51°29.261 3°6.78 319.5 13.19 323 -999
2010-08-19 09:49:00 51°29.288 3°6.749 318.6 10.59 324 -999
2010-08-19 09:49:10 51°29.308 3°6.725 318.6 10.59 324 -999
2010-08-19 09:49:20 51°29.332 3°6.699 318.6 10.59 324 -999
2010-08-19 09:49:30 51°29.351 3°6.683 318.6 10.59 324 -999
2010-08-19 09:49:40 51°29.372 3°6.666 318.6 10.59 324 -999
2010-08-19 09:49:50 51°29.388 3°6.654 318.6 10.59 324 -999
2010-08-19 09:50:00 51°29.407 3°6.642 328.8 6.29 338 -999
2010-08-19 09:50:10 51°29.421 3°6.633 328.8 6.29 338 -999
2010-08-19 09:50:20 51°29.437 3°6.623 328.8 6.29 338 -999
2010-08-19 09:50:30 51°29.449 3°6.617 328.8 6.29 338 -999
2010-08-19 09:50:40 51°29.462 3°6.61 328.8 6.29 338 -999
2010-08-19 09:50:50 51°29.474 3°6.603 328.8 6.29 338 -999
2010-08-19 09:51:00 51°29.484 3°6.598 323.1 3.89 340 -999
2010-08-19 09:51:10 51°29.493 3°6.593 323.1 3.89 340 -999
2010-08-19 09:51:20 51°29.502 3°6.589 323.1 3.89 340 -999
2010-08-19 09:51:30 51°29.51 3°6.586 323.1 3.89 340 -999
2010-08-19 09:51:40 51°29.518 3°6.582 323.1 3.89 340 -999
2010-08-19 09:51:50 51°29.525 3°6.581 323.1 3.89 340 -999
2010-08-19 09:52:00 51°29.532 3°6.58 318.3 2.2 359 -999
2010-08-19 09:52:10 51°29.536 3°6.582 318.3 2.2 359 -999
2010-08-19 09:52:20 51°29.538 3°6.588 318.3 2.2 359 -999
2010-08-19 09:52:30 51°29.54 3°6.594 318.3 2.2 359 -999
2010-08-19 09:52:40 51°29.543 3°6.6 318.3 2.2 359 -999
2010-08-19 09:52:50 51°29.544 3°6.608 318.3 2.2 359 -999
2010-08-19 09:53:00 51°29.544 3°6.616 329.3 2 98 -999
2010-08-19 09:53:10 51°29.542 3°6.626 329.3 2 98 -999
2010-08-19 09:53:20 51°29.539 3°6.634 329.3 2 98 -999
2010-08-19 09:53:30 51°29.536 3°6.642 329.3 2 98 -999
2010-08-19 09:53:40 51°29.533 3°6.649 329.3 2 98 -999
2010-08-19 09:53:50 51°29.531 3°6.655 329.3 2 98 -999
2010-08-19 09:54:00 51°29.53 3°6.662 349.8 1.5 110 -999
2010-08-19 09:54:10 51°29.529 3°6.667 349.8 1.5 110 -999
2010-08-19 09:54:20 51°29.527 3°6.673 349.8 1.5 110 -999
2010-08-19 09:54:30 51°29.526 3°6.679 349.8 1.5 110 -999
2010-08-19 09:54:40 51°29.526 3°6.684 349.8 1.5 110 -999
2010-08-19 09:54:50 51°29.526 3°6.689 349.8 1.5 110 -999
2010-08-19 09:55:00 51°29.526 3°6.693 3 1 86 -999
2010-08-19 09:55:10 51°29.526 3°6.698 3 1 86 -999
2010-08-19 09:55:20 51°29.527 3°6.703 3 1 86 -999
2010-08-19 09:55:30 51°29.527 3°6.707 3 1 86 -999
2010-08-19 09:55:40 51°29.529 3°6.712 3 1 86 -999
2010-08-19 09:55:50 51°29.53 3°6.717 3 1 86 -999
2010-08-19 09:56:00 51°29.53 3°6.721 10.1 1 94 -999
2010-08-19 09:56:10 51°29.529 3°6.725 10.1 1 94 -999
2010-08-19 09:56:20 51°29.528 3°6.728 10.1 1 94 -999
2010-08-19 09:56:30 51°29.525 3°6.73 10.1 1 94 -999
2010-08-19 09:56:40 51°29.523 3°6.732 10.1 1 94 -999
2010-08-19 09:56:50 51°29.521 3°6.732 10.1 1 94 -999
2010-08-19 09:57:00 51°29.518 3°6.734 29.8 0.59 163 -999
2010-08-19 09:57:10 51°29.517 3°6.735 29.8 0.59 163 -999
2010-08-19 09:57:20 51°29.517 3°6.736 29.8 0.59 163 -999
2010-08-19 09:57:30 51°29.517 3°6.738 29.8 0.59 163 -999
2010-08-19 09:57:40 51°29.516 3°6.739 29.8 0.59 163 -999
2010-08-19 09:57:50 51°29.517 3°6.741 29.8 0.59 163 -999
2010-08-19 09:58:00 51°29.517 3°6.744 37.8 0.8 75 -999
2010-08-19 09:58:10 51°29.518 3°6.747 37.8 0.8 75 -999
2010-08-19 09:58:20 51°29.519 3°6.75 37.8 0.8 75 -999
2010-08-19 09:58:30 51°29.52 3°6.753 37.8 0.8 75 -999
2010-08-19 09:58:40 51°29.522 3°6.755 37.8 0.8 75 -999
2010-08-19 09:58:50 51°29.523 3°6.759 37.8 0.8 75 -999
2010-08-19 09:59:00 51°29.525 3°6.763 44.5 1 56 -999
2010-08-19 09:59:10 51°29.527 3°6.766 44.5 1 56 -999
2010-08-19 09:59:20 51°29.529 3°6.77 44.5 1 56 -999
2010-08-19 09:59:30 51°29.53 3°6.774 44.5 1 56 -999
2010-08-19 09:59:40 51°29.531 3°6.776 44.5 1 56 -999
2010-08-19 09:59:50 51°29.532 3°6.777 44.5 1 56 -999
2010-08-19 10:00:00 51°29.531 3°6.777 47.8 0.29 171 -999
2010-08-19 10:00:10 51°29.53 3°6.775 47.8 0.29 171 -999
2010-08-19 10:00:20 51°29.529 3°6.772 47.8 0.29 171 -999
2010-08-19 10:00:30 51°29.528 3°6.768 47.8 0.29 171 -999
2010-08-19 10:00:40 51°29.526 3°6.763 47.8 0.29 171 -999
2010-08-19 10:00:50 51°29.526 3°6.758 47.8 0.29 171 -999
2010-08-19 10:01:00 51°29.524 3°6.752 62.6 1.5 250 -999
2010-08-19 10:01:10 51°29.523 3°6.745 62.6 1.5 250 -999
2010-08-19 10:01:20 51°29.523 3°6.74 62.6 1.5 250 -999
2010-08-19 10:01:30 51°29.524 3°6.736 62.6 1.5 250 -999
2010-08-19 10:01:40 51°29.525 3°6.735 62.6 1.5 250 -999
2010-08-19 10:01:50 51°29.526 3°6.736 62.6 1.5 250 -999
2010-08-19 10:02:00 51°29.529 3°6.739 76.5 1.1 41 -999
2010-08-19 10:02:10 51°29.531 3°6.743 76.5 1.1 41 -999
2010-08-19 10:02:20 51°29.534 3°6.752 76.5 1.1 41 -999
2010-08-19 10:02:30 51°29.536 3°6.761 76.5 1.1 41 -999
2010-08-19 10:02:40 51°29.538 3°6.773 76.5 1.1 41 -999
2010-08-19 10:02:50 51°29.539 3°6.784 76.5 1.1 41 -999
2010-08-19 10:03:00 51°29.538 3°6.796 118 2.7 96 -999
2010-08-19 10:03:10 51°29.536 3°6.809 118 2.7 96 -999
2010-08-19 10:03:20 51°29.534 3°6.822 118 2.7 96 -999
2010-08-19 10:03:30 51°29.531 3°6.834 118 2.7 96 -999
2010-08-19 10:03:40 51°29.529 3°6.849 118 2.7 96 -999
2010-08-19 10:03:50 51°29.527 3°6.863 118 2.7 96 -999
2010-08-19 10:04:00 51°29.525 3°6.882 117.5 4.4 105 -999
2010-08-19 10:04:10 51°29.521 3°6.901 117.5 4.4 105 -999
2010-08-19 10:04:20 51°29.512 3°6.921 117.5 4.4 105 -999
2010-08-19 10:04:30 51°29.502 3°6.933 117.5 4.4 105 -999
2010-08-19 10:04:40 51°29.488 3°6.939 117.5 4.4 105 -999
2010-08-19 10:04:50 51°29.476 3°6.939 117.5 4.4 105 -999
2010-08-19 10:05:00 51°29.465 3°6.932 203 4.59 204 -999
2010-08-19 10:05:10 51°29.455 3°6.919 203 4.59 204 -999
2010-08-19 10:05:20 51°29.449 3°6.898 203 4.59 204 -999
2010-08-19 10:05:30 51°29.448 3°6.879 203 4.59 204 -999
2010-08-19 10:05:40 51°29.452 3°6.856 203 4.59 204 -999
2010-08-19 10:05:50 51°29.461 3°6.836 203 4.59 204 -999
2010-08-19 10:06:00 51°29.474 3°6.822 312.3 5.9 327 -999
2010-08-19 10:06:10 51°29.488 3°6.815 312.3 5.9 327 -999
2010-08-19 10:06:20 51°29.502 3°6.812 312.3 5.9 327 -999
2010-08-19 10:06:30 51°29.514 3°6.813 312.3 5.9 327 -999
2010-08-19 10:06:40 51°29.521 3°6.815 312.3 5.9 327 -999
2010-08-19 10:06:50 51°29.522 3°6.819 312.3 5.9 327 -999
2010-08-19 10:07:00 51°29.521 3°6.825 347.1 1.6 121 -999
2010-08-19 10:07:10 51°29.516 3°6.832 347.1 1.6 121 -999
2010-08-19 10:07:20 51°29.511 3°6.839 347.1 1.6 121 -999
2010-08-19 10:07:30 51°29.508 3°6.844 347.1 1.6 121 -999
2010-08-19 10:07:40 51°29.507 3°6.848 347.1 1.6 121 -999
2010-08-19 10:07:50 51°29.507 3°6.852 347.1 1.6 121 -999
2010-08-19 10:08:00 51°29.514 3°6.858 11.1 3 29 -999
2010-08-19 10:08:10 51°29.521 3°6.864 11.1 3 29 -999
2010-08-19 10:08:20 51°29.525 3°6.869 11.1 3 29 -999
2010-08-19 10:08:30 51°29.527 3°6.872 11.1 3 29 -999
2010-08-19 10:08:40 51°29.526 3°6.874 11.1 3 29 -999
2010-08-19 10:08:50 51°29.521 3°6.874 11.1 3 29 -999
2010-08-19 10:09:00 51°29.516 3°6.874 22.8 1.69 184 -999
2010-08-19 10:09:10 51°29.512 3°6.873 22.8 1.69 184 -999
2010-08-19 10:09:20 51°29.509 3°6.872 22.8 1.69 184 -999
2010-08-19 10:09:30 51°29.506 3°6.872 22.8 1.69 184 -999
2010-08-19 10:09:40 51°29.504 3°6.871 22.8 1.69 184 -999
2010-08-19 10:09:50 51°29.501 3°6.871 22.8 1.69 184 -999
2010-08-19 10:10:00 51°29.5 3°6.871 34.2 0.59 188 -999
2010-08-19 10:10:10 51°29.499 3°6.872 34.2 0.59 188 -999
2010-08-19 10:10:20 51°29.497 3°6.873 34.2 0.59 188 -999
2010-08-19 10:10:30 51°29.496 3°6.875 34.2 0.59 188 -999
2010-08-19 10:10:40 51°29.496 3°6.876 34.2 0.59 188 -999
2010-08-19 10:10:50 51°29.495 3°6.878 34.2 0.59 188 -999
2010-08-19 10:11:00 51°29.495 3°6.88 37.3 0.59 101 -999
2010-08-19 10:11:10 51°29.495 3°6.882 37.3 0.59 101 -999
2010-08-19 10:11:20 51°29.496 3°6.884 37.3 0.59 101 -999
2010-08-19 10:11:30 51°29.496 3°6.887 37.3 0.59 101 -999
2010-08-19 10:11:40 51°29.497 3°6.89 37.3 0.59 101 -999
2010-08-19 10:11:50 51°29.498 3°6.893 37.3 0.59 101 -999
2010-08-19 10:12:00 51°29.499 3°6.896 39.7 0.8 57 -999
2010-08-19 10:12:10 51°29.5 3°6.899 39.7 0.8 57 -999
2010-08-19 10:12:20 51°29.502 3°6.903 39.7 0.8 57 -999
2010-08-19 10:12:30 51°29.503 3°6.906 39.7 0.8 57 -999
2010-08-19 10:12:40 51°29.505 3°6.909 39.7 0.8 57 -999
2010-08-19 10:12:50 51°29.507 3°6.913 39.7 0.8 57 -999
2010-08-19 10:13:00 51°29.509 3°6.917 37.1 1 48 -999
2010-08-19 10:13:10 51°29.511 3°6.921 37.1 1 48 -999
2010-08-19 10:13:20 51°29.513 3°6.926 37.1 1 48 -999
2010-08-19 10:13:30 51°29.515 3°6.93 37.1 1 48 -999
2010-08-19 10:13:40 51°29.517 3°6.934 37.1 1 48 -999
2010-08-19 10:13:50 51°29.52 3°6.938 37.1 1 48 -999
2010-08-19 10:14:00 51°29.523 3°6.943 27.8 1.5 47 -999
2010-08-19 10:14:10 51°29.525 3°6.947 27.8 1.5 47 -999
2010-08-19 10:14:20 51°29.529 3°6.952 27.8 1.5 47 -999
2010-08-19 10:14:30 51°29.531 3°6.956 27.8 1.5 47 -999
2010-08-19 10:14:40 51°29.534 3°6.961 27.8 1.5 47 -999
2010-08-19 10:14:50 51°29.537 3°6.965 27.8 1.5 47 -999
2010-08-19 10:15:00 51°29.54 3°6.969 12.4 1.3 34 -999
2010-08-19 10:15:10 51°29.543 3°6.973 12.4 1.3 34 -999
2010-08-19 10:15:20 51°29.547 3°6.978 12.4 1.3 34 -999
2010-08-19 10:15:30 51°29.549 3°6.981 12.4 1.3 34 -999
2010-08-19 10:15:40 51°29.553 3°6.986 12.4 1.3 34 -999
2010-08-19 10:15:50 51°29.555 3°6.99 12.4 1.3 34 -999
2010-08-19 10:16:00 51°29.558 3°6.995 359.3 1.39 40 -999
2010-08-19 10:16:10 51°29.561 3°6.999 359.3 1.39 40 -999
2010-08-19 10:16:20 51°29.565 3°7.003 359.3 1.39 40 -999
2010-08-19 10:16:30 51°29.567 3°7.006 359.3 1.39 40 -999
2010-08-19 10:16:40 51°29.57 3°7.011 359.3 1.39 40 -999
2010-08-19 10:16:50 51°29.573 3°7.014 359.3 1.39 40 -999
2010-08-19 10:17:00 51°29.576 3°7.019 347.3 1.3 35 -999
2010-08-19 10:17:10 51°29.579 3°7.022 347.3 1.3 35 -999
2010-08-19 10:17:20 51°29.582 3°7.026 347.3 1.3 35 -999
2010-08-19 10:17:30 51°29.584 3°7.03 347.3 1.3 35 -999
2010-08-19 10:17:40 51°29.587 3°7.035 347.3 1.3 35 -999
2010-08-19 10:17:50 51°29.59 3°7.039 347.3 1.3 35 -999
2010-08-19 10:18:00 51°29.593 3°7.043 339.6 1.3 41 -999
2010-08-19 10:18:10 51°29.595 3°7.047 339.6 1.3 41 -999
2010-08-19 10:18:20 51°29.598 3°7.052 339.6 1.3 41 -999
2010-08-19 10:18:30 51°29.6 3°7.057 339.6 1.3 41 -999
2010-08-19 10:18:40 51°29.603 3°7.061 339.6 1.3 41 -999
2010-08-19 10:18:50 51°29.606 3°7.066 339.6 1.3 41 -999
2010-08-19 10:19:00 51°29.608 3°7.071 336.8 1.39 47 -999
2010-08-19 10:19:10 51°29.61 3°7.074 336.8 1.39 47 -999
2010-08-19 10:19:20 51°29.613 3°7.079 336.8 1.39 47 -999
2010-08-19 10:19:30 51°29.616 3°7.083 336.8 1.39 47 -999
2010-08-19 10:19:40 51°29.618 3°7.088 336.8 1.39 47 -999
2010-08-19 10:19:50 51°29.62 3°7.092 336.8 1.39 47 -999
2010-08-19 10:20:00 51°29.623 3°7.097 336.6 1.3 51 -999
2010-08-19 10:20:10 51°29.625 3°7.101 336.6 1.3 51 -999
2010-08-19 10:20:20 51°29.628 3°7.107 336.6 1.3 51 -999
2010-08-19 10:20:30 51°29.631 3°7.11 336.6 1.3 51 -999
2010-08-19 10:20:40 51°29.635 3°7.114 336.6 1.3 51 -999
2010-08-19 10:20:50 51°29.64 3°7.115 336.6 1.3 51 -999
2010-08-19 10:21:00 51°29.646 3°7.116 327 2.2 359 -999
2010-08-19 10:21:10 51°29.652 3°7.114 327 2.2 359 -999
2010-08-19 10:21:20 51°29.659 3°7.111 327 2.2 359 -999
2010-08-19 10:21:30 51°29.665 3°7.104 327 2.2 359 -999
2010-08-19 10:21:40 51°29.671 3°7.097 327 2.2 359 -999
2010-08-19 10:21:50 51°29.676 3°7.088 327 2.2 359 -999
2010-08-19 10:22:00 51°29.68 3°7.078 277.8 2.7 299 -999
2010-08-19 10:22:10 51°29.682 3°7.067 277.8 2.7 299 -999
2010-08-19 10:22:20 51°29.683 3°7.055 277.8 2.7 299 -999
2010-08-19 10:22:30 51°29.682 3°7.046 277.8 2.7 299 -999
2010-08-19 10:22:40 51°29.68 3°7.035 277.8 2.7 299 -999
2010-08-19 10:22:50 51°29.675 3°7.025 277.8 2.7 299 -999
2010-08-19 10:23:00 51°29.67 3°7.013 228.6 3.1 231 -999
2010-08-19 10:23:10 51°29.664 3°7.003 228.6 3.1 231 -999
2010-08-19 10:23:20 51°29.657 3°6.991 228.6 3.1 231 -999
2010-08-19 10:23:30 51°29.65 3°6.982 228.6 3.1 231 -999
2010-08-19 10:23:40 51°29.642 3°6.972 228.6 3.1 231 -999
2010-08-19 10:23:50 51°29.633 3°6.963 228.6 3.1 231 -999
2010-08-19 10:24:00 51°29.623 3°6.952 213.8 3.89 212 -999
2010-08-19 10:24:10 51°29.614 3°6.944 213.8 3.89 212 -999
2010-08-19 10:24:20 51°29.603 3°6.934 213.8 3.89 212 -999
2010-08-19 10:24:30 51°29.595 3°6.927 213.8 3.89 212 -999
2010-08-19 10:24:40 51°29.586 3°6.921 213.8 3.89 212 -999
2010-08-19 10:24:50 51°29.578 3°6.915 213.8 3.89 212 -999
2010-08-19 10:25:00 51°29.57 3°6.911 207.8 2.6 204 -999
2010-08-19 10:25:10 51°29.565 3°6.908 207.8 2.6 204 -999
2010-08-19 10:25:20 51°29.56 3°6.906 207.8 2.6 204 -999
2010-08-19 10:25:30 51°29.557 3°6.907 207.8 2.6 204 -999
2010-08-19 10:25:40 51°29.556 3°6.907 207.8 2.6 204 -999
2010-08-19 10:25:50 51°29.555 3°6.908 207.8 2.6 204 -999
2010-08-19 10:26:00 51°29.554 3°6.909 217.5 0.4 139 -999
2010-08-19 10:26:10 51°29.553 3°6.911 217.5 0.4 139 -999
2010-08-19 10:26:20 51°29.553 3°6.912 217.5 0.4 139 -999
2010-08-19 10:26:30 51°29.554 3°6.914 217.5 0.4 139 -999
2010-08-19 10:26:40 51°29.554 3°6.917 217.5 0.4 139 -999
2010-08-19 10:26:50 51°29.555 3°6.918 217.5 0.4 139 -999
2010-08-19 10:27:00 51°29.556 3°6.921 220.4 0.5 53 -999
2010-08-19 10:27:10 51°29.556 3°6.924 220.4 0.5 53 -999
2010-08-19 10:27:20 51°29.558 3°6.927 220.4 0.5 53 -999
2010-08-19 10:27:30 51°29.559 3°6.931 220.4 0.5 53 -999
2010-08-19 10:27:40 51°29.561 3°6.936 220.4 0.5 53 -999
2010-08-19 10:27:50 51°29.562 3°6.94 220.4 0.5 53 -999
2010-08-19 10:28:00 51°29.564 3°6.946 211.3 1.39 61 -999
2010-08-19 10:28:10 51°29.566 3°6.95 211.3 1.39 61 -999
2010-08-19 10:28:20 51°29.569 3°6.955 211.3 1.39 61 -999
2010-08-19 10:28:30 51°29.571 3°6.96 211.3 1.39 61 -999
2010-08-19 10:28:40 51°29.573 3°6.965 211.3 1.39 61 -999
2010-08-19 10:28:50 51°29.577 3°6.969 211.3 1.39 61 -999
2010-08-19 10:29:00 51°29.58 3°6.975 187.1 1.39 45 -999
2010-08-19 10:29:10 51°29.582 3°6.979 187.1 1.39 45 -999
2010-08-19 10:29:20 51°29.586 3°6.984 187.1 1.39 45 -999
2010-08-19 10:29:30 51°29.588 3°6.986 187.1 1.39 45 -999
2010-08-19 10:29:40 51°29.591 3°6.99 187.1 1.39 45 -999
2010-08-19 10:29:50 51°29.594 3°6.995 187.1 1.39 45 -999
2010-08-19 10:30:00 51°29.597 3°7 165.4 1.3 43 -999
2010-08-19 10:30:10 51°29.6 3°7.003 165.4 1.3 43 -999
2010-08-19 10:30:20 51°29.603 3°7.008 165.4 1.3 43 -999
2010-08-19 10:30:30 51°29.605 3°7.012 165.4 1.3 43 -999
2010-08-19 10:30:40 51°29.608 3°7.016 165.4 1.3 43 -999
2010-08-19 10:30:50 51°29.61 3°7.02 165.4 1.3 43 -999
2010-08-19 10:31:00 51°29.613 3°7.025 152.5 1.3 47 -999
2010-08-19 10:31:10 51°29.615 3°7.029 152.5 1.3 47 -999
2010-08-19 10:31:20 51°29.618 3°7.034 152.5 1.3 47 -999
2010-08-19 10:31:30 51°29.62 3°7.038 152.5 1.3 47 -999
2010-08-19 10:31:40 51°29.623 3°7.042 152.5 1.3 47 -999
2010-08-19 10:31:50 51°29.625 3°7.046 152.5 1.3 47 -999
2010-08-19 10:32:00 51°29.628 3°7.051 146.9 1.3 52 -999
2010-08-19 10:32:10 51°29.629 3°7.056 146.9 1.3 52 -999
2010-08-19 10:32:20 51°29.63 3°7.061 146.9 1.3 52 -999
2010-08-19 10:32:30 51°29.631 3°7.067 146.9 1.3 52 -999
2010-08-19 10:32:40 51°29.63 3°7.072 146.9 1.3 52 -999
2010-08-19 10:32:50 51°29.63 3°7.077 146.9 1.3 52 -999
2010-08-19 10:33:00 51°29.628 3°7.082 167 1.19 118 -999
2010-08-19 10:33:10 51°29.626 3°7.087 167 1.19 118 -999
2010-08-19 10:33:20 51°29.624 3°7.091 167 1.19 118 -999
2010-08-19 10:33:30 51°29.622 3°7.094 167 1.19 118 -999
2010-08-19 10:33:40 51°29.618 3°7.096 167 1.19 118 -999
2010-08-19 10:33:50 51°29.615 3°7.098 167 1.19 118 -999
2010-08-19 10:34:00 51°29.611 3°7.098 199.6 1.39 181 -999
2010-08-19 10:34:10 51°29.608 3°7.098 199.6 1.39 181 -999
2010-08-19 10:34:20 51°29.604 3°7.096 199.6 1.39 181 -999
2010-08-19 10:34:30 51°29.6 3°7.094 199.6 1.39 181 -999
2010-08-19 10:34:40 51°29.596 3°7.091 199.6 1.39 181 -999
2010-08-19 10:34:50 51°29.592 3°7.089 199.6 1.39 181 -999
2010-08-19 10:35:00 51°29.587 3°7.085 212 1.8 206 -999
2010-08-19 10:35:10 51°29.582 3°7.082 212 1.8 206 -999
2010-08-19 10:35:20 51°29.578 3°7.077 212 1.8 206 -999
2010-08-19 10:35:30 51°29.574 3°7.071 212 1.8 206 -999
2010-08-19 10:35:40 51°29.569 3°7.065 212 1.8 206 -999
2010-08-19 10:35:50 51°29.566 3°7.059 212 1.8 206 -999
2010-08-19 10:36:00 51°29.561 3°7.051 225.8 2.2 225 -999
2010-08-19 10:36:10 51°29.557 3°7.044 225.8 2.2 225 -999
2010-08-19 10:36:20 51°29.553 3°7.037 225.8 2.2 225 -999
2010-08-19 10:36:30 51°29.549 3°7.03 225.8 2.2 225 -999
2010-08-19 10:36:40 51°29.546 3°7.025 225.8 2.2 225 -999
2010-08-19 10:36:50 51°29.543 3°7.021 225.8 2.2 225 -999
2010-08-19 10:37:00 51°29.541 3°7.017 224.6 1.1 234 -999
2010-08-19 10:37:10 51°29.539 3°7.014 224.6 1.1 234 -999
2010-08-19 10:37:20 51°29.537 3°7.011 224.6 1.1 234 -999
2010-08-19 10:37:30 51°29.536 3°7.009 224.6 1.1 234 -999
2010-08-19 10:37:40 51°29.535 3°7.008 224.6 1.1 234 -999
2010-08-19 10:37:50 51°29.534 3°7.007 224.6 1.1 234 -999
2010-08-19 10:38:00 51°29.533 3°7.006 222.8 0.2 195 -999
2010-08-19 10:38:10 51°29.533 3°7.007 222.8 0.2 195 -999
2010-08-19 10:38:20 51°29.532 3°7.008 222.8 0.2 195 -999
2010-08-19 10:38:30 51°29.532 3°7.009 222.8 0.2 195 -999
2010-08-19 10:38:40 51°29.533 3°7.011 222.8 0.2 195 -999
2010-08-19 10:38:50 51°29.534 3°7.013 222.8 0.2 195 -999
2010-08-19 10:39:00 51°29.535 3°7.015 215.1 0.5 47 -999
2010-08-19 10:39:10 51°29.535 3°7.018 215.1 0.5 47 -999
2010-08-19 10:39:20 51°29.537 3°7.022 215.1 0.5 47 -999
2010-08-19 10:39:30 51°29.538 3°7.026 215.1 0.5 47 -999
2010-08-19 10:39:40 51°29.539 3°7.03 215.1 0.5 47 -999
2010-08-19 10:39:50 51°29.541 3°7.033 215.1 0.5 47 -999
2010-08-19 10:40:00 51°29.542 3°7.037 201.5 1.1 52 -999
2010-08-19 10:40:10 51°29.544 3°7.041 201.5 1.1 52 -999
2010-08-19 10:40:20 51°29.546 3°7.046 201.5 1.1 52 -999
2010-08-19 10:40:30 51°29.548 3°7.05 201.5 1.1 52 -999
2010-08-19 10:40:40 51°29.551 3°7.055 201.5 1.1 52 -999
2010-08-19 10:40:50 51°29.553 3°7.059 201.5 1.1 52 -999
2010-08-19 10:41:00 51°29.556 3°7.064 179.6 1.5 42 -999
2010-08-19 10:41:10 51°29.558 3°7.068 179.6 1.5 42 -999
2010-08-19 10:41:20 51°29.561 3°7.072 179.6 1.5 42 -999
2010-08-19 10:41:30 51°29.563 3°7.077 179.6 1.5 42 -999
2010-08-19 10:41:40 51°29.567 3°7.081 179.6 1.5 42 -999
2010-08-19 10:41:50 51°29.569 3°7.084 179.6 1.5 42 -999
2010-08-19 10:42:00 51°29.572 3°7.089 158.5 1.3 45 -999
2010-08-19 10:42:10 51°29.574 3°7.093 158.5 1.3 45 -999
2010-08-19 10:42:20 51°29.577 3°7.097 158.5 1.3 45 -999
2010-08-19 10:42:30 51°29.58 3°7.101 158.5 1.3 45 -999
2010-08-19 10:42:40 51°29.583 3°7.105 158.5 1.3 45 -999
2010-08-19 10:42:50 51°29.585 3°7.11 158.5 1.3 45 -999
2010-08-19 10:43:00 51°29.586 3°7.115 146.6 1.3 67 -999
2010-08-19 10:43:10 51°29.587 3°7.121 146.6 1.3 67 -999
2010-08-19 10:43:20 51°29.586 3°7.127 146.6 1.3 67 -999
2010-08-19 10:43:30 51°29.585 3°7.133 146.6 1.3 67 -999
2010-08-19 10:43:40 51°29.583 3°7.139 146.6 1.3 67 -999
2010-08-19 10:43:50 51°29.58 3°7.143 146.6 1.3 67 -999
2010-08-19 10:44:00 51°29.577 3°7.148 177.8 1.39 143 -999
2010-08-19 10:44:10 51°29.574 3°7.151 177.8 1.39 143 -999
2010-08-19 10:44:20 51°29.57 3°7.153 177.8 1.39 143 -999
2010-08-19 10:44:30 51°29.566 3°7.154 177.8 1.39 143 -999
2010-08-19 10:44:40 51°29.562 3°7.153 177.8 1.39 143 -999
2010-08-19 10:44:50 51°29.559 3°7.151 177.8 1.39 143 -999
2010-08-19 10:45:00 51°29.555 3°7.148 215.1 1.3 213 -999
2010-08-19 10:45:10 51°29.552 3°7.144 215.1 1.3 213 -999
2010-08-19 10:45:20 51°29.55 3°7.138 215.1 1.3 213 -999
2010-08-19 10:45:30 51°29.548 3°7.132 215.1 1.3 213 -999
2010-08-19 10:45:40 51°29.547 3°7.124 215.1 1.3 213 -999
2010-08-19 10:45:50 51°29.546 3°7.116 215.1 1.3 213 -999
2010-08-19 10:46:00 51°29.546 3°7.106 251 2 270 -999
2010-08-19 10:46:10 51°29.546 3°7.097 251 2 270 -999
2010-08-19 10:46:20 51°29.546 3°7.086 251 2 270 -999
2010-08-19 10:46:30 51°29.547 3°7.077 251 2 270 -999
2010-08-19 10:46:40 51°29.547 3°7.065 251 2 270 -999